VRMG

Gan International Airport

Gan, Maldives
TAF VRMG 210500Z 2106/2212 29014KT 9999 SCT017TCU BKN110 TEMPO 2106/2112 29018G38KT 3000 TSRA/-RA SCT016CB OVC090
Issued Valid From Valid To
Apr-21 @ 05:00 UTC
(5 hours ago)
Apr-21 @ 06:00 UTC
(4 hours ago)
Apr-22 @ 12:00 UTC
(-1 days ago)
Apr-21 @ 06:00 to Apr-22 @ 12:00
TAF VRMG 210500Z 2106/2212 29014KT 9999 SCT017TCU BKN110
Wind Visibility Clouds
290° at 14 knots 10,000+ meters
  • Scattered at 1,700' AGL
  • Broken at 11,000' AGL
Temporary Apr-21 @ 06:00 to Apr-21 @ 12:00
TEMPO 2106/2112 29018G38KT 3000 TSRA/-RA SCT016CB OVC090
Wind Visibility Clouds Conditions
290° at 18 knots
 Gusting to 38 knots
2,993 meters
  • Scattered at 1,600' AGL
  • Overcast at 9,000' AGL
  • Thunderstorm
  • Rain
  • Light Rain
TAF VRMG 210500Z 2106/2212 29014KT 9999 SCT017TCU BKN110 TEMPO 2106/2112 29018G38KT 3000 TSRA/-RA SCT016CB OVC090
Issued Apr-21 @ 05:00 UTC
(5 hours ago)
Valid From Apr-21 @ 06:00 UTC
(4 hours ago)
Valid To Apr-22 @ 12:00 UTC
(-1 days ago)
Apr-21 @ 06:00 - Apr-22 @ 12:00
Wind Visibility
290° at 14 knots 10,000+ meters
Clouds
  • Scattered at 1,700' AGL
  • Broken at 11,000' AGL
Temporary Apr-21 @ 06:00 - Apr-21 @ 12:00
Wind Visibility
290° at 18 knots
 Gusting to 38 knots
2,993 meters
Clouds
  • Scattered at 1,600' AGL
  • Overcast at 9,000' AGL
Conditions
  • Thunderstorm
  • Rain
  • Light Rain